Time;durP1;ratioP1;P1;durP2;ratioP2;P2;SDS_P1;SDS_P2;PMS_P1;PMS_P2;Temp;Humidity;BMP_temperature;BMP_pressure;BME280_temperature;BME280_humidity;BME280_pressure;Samples;Min_cycle;Max_cycle;Signal;HPM_P1;HPM_P2
2022/09/10 00:00:16;;;;;;;1.60;1.00;;;17.60;95.10;;;;;;20659461;28;20240;-79
2022/09/10 00:10:18;;;;;;;3.10;1.70;;;17.50;95.10;;;;;;20678017;28;20209;-78
2022/09/10 00:20:20;;;;;;;2.90;1.20;;;17.50;95.10;;;;;;20677366;28;20245;-81
2022/09/10 00:30:22;;;;;;;4.77;1.30;;;17.40;95.10;;;;;;20677768;28;20209;-81
2022/09/10 00:40:24;;;;;;;5.43;1.03;;;17.40;95.20;;;;;;20681398;28;20701;-80
2022/09/10 00:50:29;;;;;;;1.67;1.00;;;17.40;95.30;;;;;;20677827;28;20217;-80
2022/09/10 01:00:31;;;;;;;2.37;1.10;;;17.50;95.40;;;;;;20677985;28;20291;-82
2022/09/10 01:11:00;;;;;;;1.53;1.03;;;17.50;95.50;;;;;;20675565;28;20214;-77
2022/09/10 01:21:05;;;;;;;3.20;1.00;;;17.50;95.50;;;;;;20673406;28;20247;-78
2022/09/10 01:31:17;;;;;;;2.87;1.00;;;17.40;95.50;;;;;;20673704;28;20201;-79
2022/09/10 01:41:22;;;;;;;3.10;1.10;;;17.30;95.50;;;;;;20671918;28;20728;-83
2022/09/10 01:51:33;;;;;;;2.43;0.97;;;17.30;95.40;;;;;;20670903;28;20236;-81
2022/09/10 02:01:44;;;;;;;1.03;0.93;;;17.30;95.30;;;;;;20669970;28;20241;-79
2022/09/10 02:11:49;;;;;;;2.47;1.00;;;17.20;95.10;;;;;;20652076;28;20619;-79
2022/09/10 02:21:52;;;;;;;2.23;0.90;;;17.20;95.20;;;;;;20668986;28;20292;-78
2022/09/10 02:31:54;;;;;;;1.67;1.00;;;17.10;95.20;;;;;;20667303;28;20653;-79
2022/09/10 02:41:57;;;;;;;3.20;1.33;;;17.10;95.20;;;;;;20667167;28;20236;-75
2022/09/10 02:52:01;;;;;;;2.47;1.10;;;17.10;95.30;;;;;;20667765;28;20210;-75
2022/09/10 03:02:03;;;;;;;1.80;0.90;;;17.10;95.30;;;;;;20676375;28;20293;-81
2022/09/10 03:12:05;;;;;;;3.63;1.10;;;17.10;95.40;;;;;;20682294;28;20234;-76
2022/09/10 03:22:07;;;;;;;3.23;1.73;;;17.10;95.40;;;;;;20682145;28;20239;-75
2022/09/10 03:32:08;;;;;;;2.70;1.20;;;17.20;95.40;;;;;;20680994;28;20202;-80
2022/09/10 03:42:11;;;;;;;2.30;1.40;;;17.20;95.40;;;;;;20680416;28;20604;-81
2022/09/10 03:52:12;;;;;;;1.73;1.10;;;17.10;95.50;;;;;;20679851;28;20217;-74
2022/09/10 04:02:15;;;;;;;2.80;1.40;;;17.00;95.60;;;;;;20678950;28;20269;-76
2022/09/10 04:12:17;;;;;;;4.63;1.30;;;17.10;95.90;;;;;;20676522;28;20225;-78
2022/09/10 04:22:18;;;;;;;2.27;1.40;;;17.10;95.90;;;;;;20677804;28;20768;-79
2022/09/10 04:32:20;;;;;;;6.07;1.50;;;17.10;96.00;;;;;;20676373;28;20614;-74
2022/09/10 04:42:22;;;;;;;4.17;1.70;;;17.20;96.10;;;;;;20675865;28;20788;-73
2022/09/10 04:52:24;;;;;;;2.07;1.70;;;17.20;96.00;;;;;;20675673;28;20674;-80
2022/09/10 05:02:25;;;;;;;4.00;1.40;;;17.20;96.00;;;;;;20674315;28;20594;-78
2022/09/10 05:12:27;;;;;;;4.27;1.70;;;17.30;96.00;;;;;;20673657;28;20224;-82
2022/09/10 05:22:29;;;;;;;7.00;2.50;;;17.30;95.90;;;;;;20672836;28;20237;-74
2022/09/10 05:32:40;;;;;;;2.27;1.40;;;17.30;96.00;;;;;;20671013;28;20210;-79
2022/09/10 05:42:42;;;;;;;3.47;1.50;;;17.30;96.00;;;;;;20670775;28;20296;-74
2022/09/10 05:52:44;;;;;;;2.73;1.50;;;17.40;96.00;;;;;;20670837;28;20680;-74
2022/09/10 06:02:46;;;;;;;2.60;1.60;;;17.30;95.90;;;;;;20669098;28;20661;-76
2022/09/10 06:12:50;;;;;;;2.13;1.80;;;17.40;95.90;;;;;;20668495;28;20711;-76
2022/09/10 06:22:53;;;;;;;3.93;1.60;;;17.50;95.80;;;;;;20668579;28;20292;-74
2022/09/10 06:32:55;;;;;;;2.17;1.40;;;17.60;95.70;;;;;;20665943;28;20202;-77
2022/09/10 06:43:00;;;;;;;5.30;2.27;;;17.70;95.80;;;;;;20666772;28;20245;-76
2022/09/10 06:53:02;;;;;;;3.87;1.60;;;17.70;95.60;;;;;;20666868;28;20682;-77
2022/09/10 07:03:04;;;;;;;2.30;1.53;;;17.70;95.60;;;;;;20663689;28;20246;-77
2022/09/10 07:13:06;;;;;;;3.22;2.00;;;17.70;95.60;;;;;;20661747;28;20451;-80
2022/09/10 07:23:13;;;;;;;3.20;1.73;;;18.30;96.00;;;;;;20666095;28;20304;-76
2022/09/10 07:33:14;;;;;;;4.20;2.30;;;18.00;96.20;;;;;;20632484;28;20202;-75
2022/09/10 07:43:16;;;;;;;4.93;1.93;;;17.90;96.10;;;;;;20666103;28;20231;-78
2022/09/10 07:53:18;;;;;;;2.33;1.23;;;17.90;96.30;;;;;;20678904;28;20206;-78
2022/09/10 08:03:21;;;;;;;3.40;1.20;;;18.00;96.20;;;;;;20676949;28;20238;-76
2022/09/10 08:13:22;;;;;;;2.00;1.10;;;18.20;96.20;;;;;;20675957;28;20758;-79
2022/09/10 08:23:24;;;;;;;2.93;1.23;;;18.30;96.00;;;;;;20674576;28;20241;-77
2022/09/10 08:33:27;;;;;;;2.63;1.73;;;18.20;95.90;;;;;;20675386;28;20214;-78
2022/09/10 08:43:49;;;;;;;1.93;1.70;;;18.10;96.10;;;;;;20672818;28;20242;-80
2022/09/10 08:53:58;;;;;;;2.83;1.13;;;17.90;96.40;;;;;;20674050;28;20241;-78
2022/09/10 09:04:03;;;;;;;1.93;1.27;;;17.80;97.10;;;;;;20673916;28;20233;-76
2022/09/10 09:14:17;;;;;;;3.57;1.37;;;17.70;97.50;;;;;;20672207;28;20612;-75
2022/09/10 09:24:38;;;;;;;13.07;8.20;;;17.80;97.70;;;;;;20671299;28;20239;-78
2022/09/10 09:34:49;;;;;;;5.87;3.20;;;17.70;97.90;;;;;;20671506;28;20659;-74
2022/09/10 09:45:01;;;;;;;29.37;16.80;;;18.00;98.20;;;;;;20670747;28;20320;-75
2022/09/10 09:55:10;;;;;;;5.63;1.93;;;18.20;98.10;;;;;;20670019;28;20234;-77
2022/09/10 10:05:24;;;;;;;10.60;5.57;;;18.50;98.20;;;;;;20669597;28;20648;-76
2022/09/10 10:15:40;;;;;;;7.43;1.93;;;18.70;97.40;;;;;;20668546;28;20661;-77
2022/09/10 10:25:46;;;;;;;2.47;1.50;;;18.80;97.00;;;;;;20666144;28;20244;-74
2022/09/10 10:36:01;;;;;;;3.77;1.63;;;19.00;96.70;;;;;;20665633;28;20689;-73
2022/09/10 10:46:19;;;;;;;3.20;1.50;;;19.10;95.80;;;;;;20666360;28;20263;-75
2022/09/10 10:56:37;;;;;;;3.43;1.50;;;19.10;95.20;;;;;;20664642;28;20219;-70
2022/09/10 11:06:45;;;;;;;4.00;1.77;;;19.10;94.60;;;;;;20654705;28;20283;-75
2022/09/10 11:16:55;;;;;;;4.43;1.70;;;19.20;94.10;;;;;;20664793;28;20236;-74
2022/09/10 11:27:11;;;;;;;4.37;1.70;;;19.40;93.70;;;;;;20680528;28;20314;-73
2022/09/10 11:37:26;;;;;;;5.93;1.80;;;19.60;93.30;;;;;;20679305;28;20208;-74
2022/09/10 11:47:37;;;;;;;5.10;1.97;;;19.70;92.00;;;;;;20678941;28;20550;-68
2022/09/10 11:58:03;;;;;;;5.93;2.00;;;19.90;91.60;;;;;;20678821;28;20613;-73
2022/09/10 12:08:28;;;;;;;6.07;1.60;;;20.00;90.90;;;;;;20678398;28;20237;-73
2022/09/10 12:18:41;;;;;;;6.87;2.87;;;19.80;90.30;;;;;;20675681;28;20248;-74
2022/09/10 12:28:52;;;;;;;12.23;8.37;;;19.70;89.80;;;;;;20658771;28;20588;-75
2022/09/10 12:39:18;;;;;;;3.00;1.93;;;19.90;89.40;;;;;;20676537;28;20216;-75
2022/09/10 12:49:20;;;;;;;6.27;2.63;;;19.80;88.20;;;;;;20676042;28;20291;-75
2022/09/10 12:59:41;;;;;;;3.03;1.70;;;20.10;87.20;;;;;;20675052;28;20217;-74
2022/09/10 13:09:43;;;;;;;7.43;2.97;;;20.20;86.30;;;;;;20673591;28;20219;-74
2022/09/10 13:19:47;;;;;;;4.43;1.20;;;19.50;91.70;;;;;;20673197;28;20245;-76
2022/09/10 13:30:17;;;;;;;3.53;1.20;;;18.60;96.00;;;;;;20672101;28;20210;-75
2022/09/10 13:40:37;;;;;;;2.80;1.27;;;18.70;96.90;;;;;;20647827;28;20236;-76
2022/09/10 13:50:46;;;;;;;3.50;1.20;;;18.90;97.60;;;;;;20670978;28;20272;-74
2022/09/10 14:00:55;;;;;;;2.47;1.20;;;19.00;97.50;;;;;;20670115;28;20291;-74
2022/09/10 14:11:06;;;;;;;3.83;1.20;;;19.20;96.80;;;;;;20669425;28;20272;-74
2022/09/10 14:21:11;;;;;;;2.00;1.30;;;19.30;95.90;;;;;;20668780;28;20244;-74
2022/09/10 14:31:29;;;;;;;3.47;1.30;;;19.40;95.60;;;;;;20668866;28;20221;-75
2022/09/10 14:41:34;;;;;;;3.73;1.20;;;19.60;94.90;;;;;;20668135;28;20731;-73
2022/09/10 14:51:35;;;;;;;1.40;1.10;;;19.70;94.30;;;;;;20667676;28;20238;-74
2022/09/10 15:01:40;;;;;;;2.63;1.20;;;20.10;94.00;;;;;;20666915;28;20608;-75
2022/09/10 15:12:03;;;;;;;3.50;1.20;;;20.10;92.30;;;;;;20666592;28;20663;-75
2022/09/10 15:22:06;;;;;;;2.43;1.27;;;20.10;92.00;;;;;;20667782;28;20241;-72
2022/09/10 15:32:09;;;;;;;8.83;5.97;;;20.20;91.80;;;;;;20665710;28;20213;-76
2022/09/10 15:42:11;;;;;;;6.83;4.57;;;19.90;91.50;;;;;;20665731;28;20275;-72
2022/09/10 15:52:12;;;;;;;4.33;2.67;;;19.80;91.70;;;;;;20665740;28;20210;-74
2022/09/10 16:02:14;;;;;;;2.23;1.70;;;19.80;91.80;;;;;;20664623;28;20241;-73
2022/09/10 16:12:16;;;;;;;2.30;1.00;;;19.80;91.60;;;;;;20676626;28;20241;-75
2022/09/10 16:22:18;;;;;;;1.23;1.00;;;19.90;91.20;;;;;;20677863;28;20594;-74
2022/09/10 16:32:21;;;;;;;4.20;1.03;;;19.90;90.70;;;;;;20677294;28;20732;-73
2022/09/10 16:42:23;;;;;;;2.87;1.17;;;19.90;90.50;;;;;;20675343;28;20248;-75
2022/09/10 16:52:25;;;;;;;1.37;1.03;;;19.80;90.50;;;;;;20675102;28;20216;-75
2022/09/10 17:02:29;;;;;;;0.97;0.90;;;19.70;90.90;;;;;;20674892;28;20282;-72
2022/09/10 17:12:31;;;;;;;2.77;0.80;;;19.60;91.00;;;;;;20673133;28;20237;-73
2022/09/10 17:22:34;;;;;;;1.57;1.40;;;19.50;90.90;;;;;;20671740;28;20237;-74
2022/09/10 17:32:35;;;;;;;2.47;2.23;;;19.40;90.80;;;;;;20671474;28;20207;-73
2022/09/10 17:42:38;;;;;;;3.77;1.70;;;19.30;91.00;;;;;;20671204;28;20235;-74
2022/09/10 17:52:44;;;;;;;1.03;0.90;;;19.10;91.90;;;;;;20670749;28;20265;-74
2022/09/10 18:02:46;;;;;;;9.03;5.20;;;18.40;91.40;;;;;;20670040;28;20240;-73
2022/09/10 18:12:48;;;;;;;16.67;10.73;;;18.10;92.10;;;;;;20668971;28;20291;-74
2022/09/10 18:22:49;;;;;;;3.27;1.80;;;17.80;93.10;;;;;;20668364;28;20241;-72
2022/09/10 18:32:51;;;;;;;6.80;2.13;;;17.60;94.20;;;;;;20667055;28;20214;-73
2022/09/10 18:42:53;;;;;;;3.87;1.53;;;17.50;95.20;;;;;;20667251;28;20701;-74
2022/09/10 18:52:54;;;;;;;4.07;1.30;;;17.60;96.10;;;;;;20664517;28;20212;-72
2022/09/10 19:02:56;;;;;;;3.70;1.80;;;17.50;96.70;;;;;;20664601;28;20225;-72
2022/09/10 19:12:57;;;;;;;4.60;1.60;;;17.50;97.30;;;;;;20664197;28;20249;-72
2022/09/10 19:22:59;;;;;;;2.77;1.73;;;17.50;97.80;;;;;;20664488;28;20241;-73
2022/09/10 19:33:01;;;;;;;2.50;1.50;;;17.50;98.20;;;;;;20665550;28;20233;-72
2022/09/10 19:43:03;;;;;;;2.93;1.83;;;17.50;98.50;;;;;;20673044;28;20606;-71
2022/09/10 19:53:05;;;;;;;6.27;2.40;;;17.40;98.80;;;;;;20677252;28;20214;-71
2022/09/10 20:03:08;;;;;;;3.83;2.00;;;17.40;99.10;;;;;;20677063;28;20237;-71
2022/09/10 20:13:10;;;;;;;4.33;2.13;;;17.40;99.60;;;;;;20675719;28;20233;-71
2022/09/10 20:23:12;;;;;;;3.07;1.83;;;17.50;99.70;;;;;;20675302;28;20705;-72
2022/09/10 20:33:15;;;;;;;2.10;1.90;;;17.50;99.90;;;;;;20674706;28;20660;-72
2022/09/10 20:43:17;;;;;;;2.63;2.00;;;17.50;99.90;;;;;;20673528;28;20236;-74
2022/09/10 20:53:18;;;;;;;2.43;2.00;;;17.50;99.90;;;;;;20672108;28;20666;-71
2022/09/10 21:03:20;;;;;;;2.23;1.80;;;17.50;99.90;;;;;;20672378;28;20312;-72
2022/09/10 21:13:23;;;;;;;4.27;1.80;;;17.50;99.90;;;;;;20670865;28;20703;-71
2022/09/10 21:23:25;;;;;;;3.60;1.93;;;17.60;99.90;;;;;;20670220;28;20236;-72
2022/09/10 21:33:28;;;;;;;2.57;1.70;;;17.60;99.90;;;;;;20670153;28;20738;-71
2022/09/10 21:43:31;;;;;;;2.70;1.90;;;17.60;99.90;;;;;;20668603;28;20237;-70
2022/09/10 21:53:34;;;;;;;2.43;1.90;;;17.60;99.90;;;;;;20668230;28;20207;-71
2022/09/10 22:03:35;;;;;;;3.50;1.93;;;17.50;99.80;;;;;;20667799;28;20238;-70
2022/09/10 22:13:37;;;;;;;3.40;2.00;;;17.40;99.80;;;;;;20666545;28;20233;-70
2022/09/10 22:23:39;;;;;;;2.80;1.90;;;17.50;99.80;;;;;;20666021;28;20234;-70
2022/09/10 22:33:42;;;;;;;3.90;2.20;;;17.40;99.90;;;;;;20665892;28;20213;-69
2022/09/10 22:43:44;;;;;;;2.73;2.20;;;17.50;99.90;;;;;;20667511;28;20288;-69
2022/09/10 22:53:46;;;;;;;4.13;2.20;;;17.50;99.90;;;;;;20666936;28;20209;-68
2022/09/10 23:03:49;;;;;;;3.17;1.80;;;17.50;99.90;;;;;;20666721;28;20245;-69
2022/09/10 23:14:03;;;;;;;2.60;1.97;;;17.60;99.90;;;;;;20667379;28;20226;-70
2022/09/10 23:24:08;;;;;;;4.07;2.20;;;17.60;99.90;;;;;;20682143;28;20237;-71
2022/09/10 23:34:13;;;;;;;3.30;2.13;;;17.50;99.90;;;;;;20681997;28;20260;-72
2022/09/10 23:44:15;;;;;;;6.17;2.20;;;17.50;99.90;;;;;;20683080;28;20233;-75
2022/09/10 23:54:17;;;;;;;2.70;1.90;;;17.50;99.90;;;;;;20680157;28;20209;-70
